1981 CLARA (1981256N10150)


On this page: IBTrACS data - Map and Plots - Positions - Intensities - Original source data

Summary

Start Sep 13
End Oct 2
Basin WP
LMI 120 kt
Sources jtwc_wp
tokyo
cma
hko
td9636
In WMO? Yes
Previous storm 1981 HARVEY (NA)
Previous in basin 1981 BILL (WP)
Concurrent storms 1981 GERT (NA)
1981 MISSING (NA)
1981 HARVEY (NA)
1981 CLARA (WP)
1981 JOVA (EP)
1981 DOYLE (WP)
1981 KNUT (EP)
1981 MISSING (WP)
1981 IRENE (NA)
1981 ELSIE (WP)
1981 MISSING (NA)
Next in basin 1981 DOYLE (WP)
Next storm 1981 JOVA (EP)

top of page IBTrACS Data: File Access

top of page HURSAT Data: File Access

Image of storm

top of page Plots:

Map of storm track will not appear if FTP is down
Time series of cyclone Maximum Sustained Wind will not appear if FTP is down
Time series of cyclone Minimum Central Pressure will not appear if FTP is down

top of page Track Data:Position

jtwc_wp tokyo cma hko td9636
Date Lat Lon Lat Lon Lat Lon Lat Lon Lat Lon
1981-09-13 00:00:00 9.9 150.4
1981-09-13 06:00:00 9.9 148.6
1981-09-13 12:00:00 9.9 146.9
1981-09-13 18:00:00 9.9 144.9 11.4 145.6 9.9 145.4
1981-09-14 00:00:00 9.9 144.2 11.0 144.0 11.0 144.0 9.9 144.2
1981-09-14 06:00:00 10.0 143.4 11.2 142.5 11.2 142.8 10.0 143.3
1981-09-14 12:00:00 10.1 142.5 11.5 141.0 11.5 141.2 10.1 142.5
1981-09-14 18:00:00 10.3 141.5 11.7 139.5 11.7 139.9 10.2 141.5
1981-09-15 00:00:00 10.5 140.5 12.0 138.3 11.8 138.7 10.5 140.5
1981-09-15 06:00:00 11.1 139.5 12.2 137.3 11.9 137.8 11.7 140.2 11.1 139.7
1981-09-15 12:00:00 11.8 138.7 12.3 136.7 12.0 137.0 11.8 138.7 11.8 138.7
1981-09-15 18:00:00 12.3 137.3 12.3 135.9 12.1 136.0 11.9 136.8 12.2 137.3
1981-09-16 00:00:00 12.4 135.8 12.3 135.2 12.2 135.1 12.1 135.5 12.4 135.8
1981-09-16 06:00:00 12.5 134.7 12.5 134.5 12.3 134.5 12.2 134.4 12.5 134.7
1981-09-16 12:00:00 12.5 133.7 12.4 133.9 12.4 133.9 12.3 133.7 12.5 133.7
1981-09-16 18:00:00 12.7 132.7 12.5 133.2 12.4 133.3 12.5 133.1 12.6 132.7
1981-09-17 00:00:00 12.8 131.8 12.6 132.3 12.5 132.5 12.7 132.3 12.8 131.8
1981-09-17 06:00:00 13.3 131.0 13.0 131.5 13.1 131.6 13.1 131.5 13.1 131.0
1981-09-17 12:00:00 13.5 130.2 13.3 130.6 13.7 130.8 13.8 130.8 13.5 130.2
1981-09-17 18:00:00 13.8 129.5 13.6 129.7 14.2 130.0 13.9 129.9 13.8 129.5
1981-09-18 00:00:00 14.2 128.8 14.1 128.6 14.5 129.2 14.0 128.8 14.2 128.8
1981-09-18 06:00:00 14.7 128.0 14.5 128.0 14.7 128.2 14.5 128.2 14.7 128.0
1981-09-18 12:00:00 15.2 127.1 15.2 127.2 15.2 127.3 15.2 127.3 15.2 127.1
1981-09-18 18:00:00 15.7 126.3 15.9 126.3 15.7 126.3 15.8 126.4 15.8 126.2
1981-09-19 00:00:00 16.4 125.4 16.6 125.4 16.6 125.4 16.5 125.5 16.4 125.4
jtwc_wp tokyo cma hko td9636
1981-09-19 06:00:00 17.1 124.5 17.2 124.5 17.4 124.5 17.4 124.5 17.1 124.5
1981-09-19 12:00:00 17.8 123.7 17.8 123.7 18.1 123.5 17.9 123.8 17.8 123.7
1981-09-19 18:00:00 18.3 122.9 18.3 122.9 18.6 122.7 18.5 122.9 18.3 122.9
1981-09-20 00:00:00 18.8 122.1 18.9 122.1 18.7 122.0 18.7 122.1 18.8 122.1
1981-09-20 06:00:00 19.2 121.2 19.2 121.3 19.1 121.1 19.0 121.2 19.2 121.2
1981-09-20 12:00:00 19.7 120.3 19.6 120.3 19.6 120.4 19.6 120.5 19.7 120.3
1981-09-20 18:00:00 20.1 119.3 20.1 119.4 20.2 119.3 20.1 119.4 20.2 119.4
1981-09-21 00:00:00 20.7 118.5 20.5 118.5 20.6 118.5 20.5 118.6 20.7 118.5
1981-09-21 06:00:00 21.1 117.8 21.0 117.6 21.0 117.7 21.0 117.6 21.2 117.7
1981-09-21 12:00:00 21.8 116.9 21.6 116.9 21.6 117.0 21.6 116.9 21.8 116.9
1981-09-21 18:00:00 22.6 116.0 22.4 116.1 22.5 116.2 22.4 116.2 22.7 116.1
1981-09-22 00:00:00 23.6 115.2 23.3 115.1 23.5 115.1 23.6 115.2 23.6 115.2
1981-09-22 06:00:00 24.6 113.9 24.2 114.5 24.2 114.4 24.6 114.6 24.5 114.0
1981-09-22 12:00:00 25.3 112.7 24.8 114.2 24.8 114.0 25.3 112.7
1981-09-22 18:00:00 25.5 114.0
1981-09-23 00:00:00 26.0 114.0
1981-09-23 06:00:00 28.0 115.0
1981-09-23 12:00:00 30.5 118.0
1981-09-23 18:00:00 32.0 120.0
1981-09-24 00:00:00 33.5 122.0
1981-09-24 06:00:00 34.5 124.5
1981-09-24 12:00:00 35.5 127.5
1981-09-24 18:00:00 35.5 129.0
1981-09-25 00:00:00 36.0 132.0
jtwc_wp tokyo cma hko td9636
1981-09-25 06:00:00 36.0 133.0
1981-09-25 12:00:00 36.0 133.5
1981-09-25 18:00:00 36.0 134.0
1981-09-26 00:00:00 36.0 134.5
1981-09-26 06:00:00 36.0 137.0
1981-09-26 12:00:00 36.0 138.0
1981-09-26 18:00:00 37.0 141.0
1981-09-27 00:00:00 38.0 142.0
1981-09-27 06:00:00 40.0 145.0
1981-09-27 12:00:00 41.5 146.0
1981-09-27 18:00:00 43.0 147.0
1981-09-28 00:00:00 45.0 148.0
1981-09-28 06:00:00 46.5 148.0
1981-09-28 12:00:00 48.0 148.0
1981-09-28 18:00:00 50.0 148.0
1981-09-29 00:00:00 51.0 147.5
1981-09-29 06:00:00 51.5 147.0
1981-09-29 12:00:00 52.5 146.5
1981-09-29 18:00:00 53.5 146.0
1981-09-30 00:00:00 54.0 146.0
1981-09-30 06:00:00 54.0 146.0
1981-09-30 12:00:00 54.5 146.0
1981-09-30 18:00:00 54.5 146.0
1981-10-01 00:00:00 54.5 146.0
jtwc_wp tokyo cma hko td9636
1981-10-01 06:00:00 54.5 147.0
1981-10-01 12:00:00 54.5 148.0
1981-10-01 18:00:00 54.5 148.5
1981-10-02 00:00:00 54.5 149.0
1981-10-02 06:00:00 55.0 149.5
1981-10-02 12:00:00 55.5 150.0
1981-10-02 18:00:00 56.0 150.0

top of pageTrack Data:Intensity

jtwc_wp tokyo cma hko td9636
Date Wind Pres Wind Pres Wind Pres Wind Pres Wind Pres
1981-09-13 00:00:00
1981-09-13 06:00:00
1981-09-13 12:00:00
1981-09-13 18:00:00 15. 1004. 15.
1981-09-14 00:00:00 15. 1004. 1006. 15.
1981-09-14 06:00:00 15. 1004. 19. 1006. 15.
1981-09-14 12:00:00 20. 1004. 19. 1006. 20.
1981-09-14 18:00:00 20. 1004. 19. 1006. 20.
1981-09-15 00:00:00 20. 1004. 23. 1004. 20.
1981-09-15 06:00:00 25. 1002. 29. 1002. 25. 1005. 20.
1981-09-15 12:00:00 25. 1000. 29. 1002. 25. 1005. 25.
1981-09-15 18:00:00 25. 998. 39. 1000. 25. 1005. 25.
1981-09-16 00:00:00 30. 35. 998. 39. 998. 25. 1005. 30.
1981-09-16 06:00:00 30. 35. 996. 39. 996. 30. 1001. 30.
1981-09-16 12:00:00 30. 35. 996. 39. 996. 30. 1000. 30.
1981-09-16 18:00:00 35. 35. 996. 39. 996. 30. 1000. 30.
1981-09-17 00:00:00 35. 40. 994. 39. 996. 30. 998. 35.
1981-09-17 06:00:00 35. 45. 992. 49. 993. 35. 994. 35.
1981-09-17 12:00:00 45. 45. 990. 49. 992. 40. 989. 45.
1981-09-17 18:00:00 50. 50. 985. 58. 988. 50. 982. 45.
1981-09-18 00:00:00 60. 60. 975. 58. 979. 55. 980. 60.
1981-09-18 06:00:00 70. 70. 975. 68. 975. 65. 975. 60.
1981-09-18 12:00:00 75. 70. 970. 68. 969. 75. 965. 75.
1981-09-18 18:00:00 75. 70. 960. 68. 960. 85. 960. 75.
1981-09-19 00:00:00 90. 80. 955. 78. 950. 95. 950. 90.
jtwc_wp tokyo cma hko td9636
1981-09-19 06:00:00 95. 85. 930. 97. 945. 110. 935. 90.
1981-09-19 12:00:00 115. 95. 925. 107. 934. 115. 925. 115.
1981-09-19 18:00:00 120. 100. 930. 117. 924. 110. 930. 115.
1981-09-20 00:00:00 120. 100. 940. 107. 940. 110. 940. 120.
1981-09-20 06:00:00 110. 90. 950. 97. 948. 110. 940. 120.
1981-09-20 12:00:00 90. 80. 960. 87. 952. 100. 960. 90.
1981-09-20 18:00:00 85. 75. 960. 78. 956. 95. 960. 90.
1981-09-21 00:00:00 85. 75. 960. 78. 960. 90. 960. 85.
1981-09-21 06:00:00 85. 75. 960. 68. 960. 85. 960. 85.
1981-09-21 12:00:00 80. 75. 965. 68. 960. 85. 960. 80.
1981-09-21 18:00:00 70. 75. 975. 68. 960. 80. 965. 80.
1981-09-22 00:00:00 50. 45. 985. 49. 985. 50. 975. 50.
1981-09-22 06:00:00 30. 998. 29. 995. 30. 998. 50.
1981-09-22 12:00:00 20. 1004. 19. 1000. 20.
1981-09-22 18:00:00 1004.
1981-09-23 00:00:00 1006.
1981-09-23 06:00:00 1006.
1981-09-23 12:00:00 1008.
1981-09-23 18:00:00 1006.
1981-09-24 00:00:00 1006.
1981-09-24 06:00:00 1004.
1981-09-24 12:00:00 1004.
1981-09-24 18:00:00 1004.
1981-09-25 00:00:00 1004.
jtwc_wp tokyo cma hko td9636
1981-09-25 06:00:00 1004.
1981-09-25 12:00:00 1004.
1981-09-25 18:00:00 1000.
1981-09-26 00:00:00 1000.
1981-09-26 06:00:00 1000.
1981-09-26 12:00:00 1000.
1981-09-26 18:00:00 998.
1981-09-27 00:00:00 996.
1981-09-27 06:00:00 992.
1981-09-27 12:00:00 990.
1981-09-27 18:00:00 990.
1981-09-28 00:00:00 988.
1981-09-28 06:00:00 988.
1981-09-28 12:00:00 984.
1981-09-28 18:00:00 984.
1981-09-29 00:00:00 988.
1981-09-29 06:00:00 988.
1981-09-29 12:00:00 988.
1981-09-29 18:00:00 992.
1981-09-30 00:00:00 996.
1981-09-30 06:00:00 996.
1981-09-30 12:00:00 996.
1981-09-30 18:00:00 996.
1981-10-01 00:00:00 996.
jtwc_wp tokyo cma hko td9636
1981-10-01 06:00:00 1000.
1981-10-01 12:00:00 1000.
1981-10-01 18:00:00 1000.
1981-10-02 00:00:00 1004.
1981-10-02 06:00:00 1008.
1981-10-02 12:00:00 1008.
1981-10-02 18:00:00 1008.

top of page Links to source data

Source Source file Format
jtwc_wp bwp201981.txt ATCF
tokyo bst_all.txt:Line=30331:CLARA:8120 JMA text table
cma CH1981BST.txt:Storm=21:Clara CMA text table
hko tc-besttrack-data-current.txt:Line=14576:CLARA HKO Text table
td9636 cons_worldwide_trop_cyclone_18710101-19891231-003:Line=27782 TD 9636